Airfield :
LOGIN :

Register | Disclaimer

   EN    FR    IT 

 










Legend :    VFR   Marginal VFR   IFR   Intensive IFR   Very Intensive IFR
Visi :
Ceiling :
>= 8 km
>= 3000ft
5 to 8 km
1000 to 3000 ft
1500m to 5 km
500 to 1000 ft
800 to 1500m
200 to 500 ft
< 800m
< 200 ft
Symbols :   Thunderstorms  Fog  Heavy snow  Heavy precipitations  Wind > 20 kt
SIGMETs :     Misc.  Thunderstorms  Icing  Turbulence  Mountain Waves  Volcanic Ashes






- Airport Elevation : 26 ft
- IATA code : GLA


EGPF - Glasgow

CURRENT METAR :
  • 270820Z AUTO 01006KT 330V040 9999 NCD 02/M06 Q1010

EXPIRED METARs :
  • 270750Z AUTO 36011G21KT 320V050 9999 NCD 03/M06 Q1010
  • 270720Z AUTO 01006KT 320V070 9999 NCD 02/M07 Q1009
  • 270650Z AUTO 36016KT 9999 NCD 03/M07 Q1009
  • 270620Z AUTO 36015KT 9999 NCD 03/M06 Q1008
  • 270550Z AUTO 36012KT 320V020 9999 SCT048 03/M05 Q1008

TAF TAF EGPF
Valid from the 27 at 06:00 until the 28 at 06:00 UTC


270457Z 2706/2806 35012KT 9999 SCT040
PROB40
TEMPO 2706/2709 36015G25KT
BECMG 2715/2718 28009KT
ATIS : +44 141 887 7449



MET'MAP, your aeronautical weather chart ! - Copyright ORBIFLY December 2007 - Disclaimer

ORBIFLY MET'MAP TEAM :

Programming & Development : Alexandra Zaïnal
Concept & original design : Baudouin d'Aumeries
Assistance for programming : Marc-Olivier Méhu
Technical & hardware support : Manuel Goepfert

Contact : metmap@orbifly.com




SOURCES & CREDITS :

   NOAA